Terminal Aerodrome Forecast
Issued by NWS Bismarck, ND

Home | Current Version | Previous Version | Graphics & Text | Print | Product List | Glossary On
Versions: 1 2 3 4 5 6 7 8 9 10 11 12 13 14 15 16 17
000
FTUS43 KBIS 142057 AAB
TAFBIS
TAF AMD
KBIS 142057Z 1421/1518 32011KT P6SM BKN030 OVC060
     FM142300 30010KT P6SM BKN035 OVC060
     FM150600 27005KT P6SM OVC060
     FM151100 23007KT P6SM OVC070=

USA.gov is the U.S. government's official web portal to all federal, state and local government web resources and services.